Time;durP1;ratioP1;P1;durP2;ratioP2;P2;SDS_P1;SDS_P2;PMS_P1;PMS_P2;Temp;Humidity;BMP_temperature;BMP_pressure;BME280_temperature;BME280_humidity;BME280_pressure;Samples;Min_cycle;Max_cycle;Signal;HPM_P1;HPM_P2
2022/05/06 00:01:54;;;;;;;15.27;10.80;;;;;;;;;;4995000;28;20050;-63
2022/05/06 00:04:24;;;;;;;11.10;9.95;;;;;;;;;;4994479;28;20084;-63
2022/05/06 00:06:52;;;;;;;11.75;10.50;;;;;;;;;;4994637;28;20042;-63
2022/05/06 00:09:20;;;;;;;11.57;10.52;;;;;;;;;;5001190;28;20058;-63
2022/05/06 00:11:51;;;;;;;10.43;9.40;;;;;;;;;;4994262;28;20060;-63
2022/05/06 00:14:19;;;;;;;11.93;9.90;;;;;;;;;;5007539;28;20053;-63
2022/05/06 00:16:47;;;;;;;13.82;10.60;;;;;;;;;;5006954;28;20132;-63
2022/05/06 00:19:15;;;;;;;13.05;9.63;;;;;;;;;;5013150;28;20050;-63
2022/05/06 00:21:43;;;;;;;10.20;9.18;;;;;;;;;;5012849;28;20050;-63
2022/05/06 00:24:12;;;;;;;13.40;9.27;;;;;;;;;;5012851;28;20045;-64
2022/05/06 00:26:42;;;;;;;12.55;9.55;;;;;;;;;;5013129;28;20660;-64
2022/05/06 00:29:10;;;;;;;9.73;8.73;;;;;;;;;;5013450;28;20126;-65
2022/05/06 00:31:38;;;;;;;9.45;8.55;;;;;;;;;;5012891;28;20122;-64
2022/05/06 00:34:11;;;;;;;9.98;8.95;;;;;;;;;;5080984;28;20149;-65
2022/05/06 00:36:40;;;;;;;12.20;9.57;;;;;;;;;;5013120;28;20095;-65
2022/05/06 00:39:09;;;;;;;10.07;9.05;;;;;;;;;;5012893;28;20103;-64
2022/05/06 00:41:39;;;;;;;9.98;8.98;;;;;;;;;;5012974;28;20066;-62
2022/05/06 00:44:08;;;;;;;12.20;8.98;;;;;;;;;;5081106;28;20054;-64
2022/05/06 00:46:38;;;;;;;11.25;8.60;;;;;;;;;;5081155;28;20054;-64
2022/05/06 00:49:10;;;;;;;12.88;9.40;;;;;;;;;;5012921;28;20139;-62
2022/05/06 00:51:38;;;;;;;9.70;7.78;;;;;;;;;;5012097;28;20064;-63
2022/05/06 00:54:06;;;;;;;8.25;7.38;;;;;;;;;;5012261;28;20074;-62
2022/05/06 00:56:34;;;;;;;10.63;8.60;;;;;;;;;;5011731;28;20489;-63
2022/05/06 00:59:03;;;;;;;9.68;8.57;;;;;;;;;;5079180;28;20058;-63
2022/05/06 01:01:31;;;;;;;10.13;9.02;;;;;;;;;;5012378;28;20085;-63
2022/05/06 01:03:59;;;;;;;11.93;7.70;;;;;;;;;;5012017;28;20463;-63
2022/05/06 01:06:31;;;;;;;10.38;7.78;;;;;;;;;;5011551;28;20058;-63
2022/05/06 01:09:00;;;;;;;10.75;8.27;;;;;;;;;;5080632;28;20074;-63
2022/05/06 01:11:28;;;;;;;9.57;8.55;;;;;;;;;;5079858;28;20095;-64
2022/05/06 01:13:56;;;;;;;10.40;9.30;;;;;;;;;;5012061;28;20078;-63
2022/05/06 01:16:37;;;;;;;10.65;8.73;;;;;;;;;;5080073;28;20046;-63
2022/05/06 01:19:09;;;;;;;10.25;9.00;;;;;;;;;;5075401;28;20123;-63
2022/05/06 01:21:41;;;;;;;11.45;9.65;;;;;;;;;;5080513;28;20054;-63
2022/05/06 01:24:15;;;;;;;9.60;8.63;;;;;;;;;;5000259;28;20485;-62
2022/05/06 01:27:06;;;;;;;10.32;9.23;;;;;;;;;;5012080;28;20493;-63
2022/05/06 01:29:36;;;;;;;10.68;8.77;;;;;;;;;;5011989;28;20373;-63
2022/05/06 01:32:07;;;;;;;10.85;9.18;;;;;;;;;;4997973;28;20045;-63
2022/05/06 01:34:40;;;;;;;10.25;9.23;;;;;;;;;;5065932;28;20099;-63
2022/05/06 01:37:18;;;;;;;11.30;8.80;;;;;;;;;;5075834;28;20137;-63
2022/05/06 01:39:51;;;;;;;12.82;8.95;;;;;;;;;;5010788;28;20100;-63
2022/05/06 01:42:21;;;;;;;13.30;9.40;;;;;;;;;;4995637;28;20137;-63
2022/05/06 01:45:02;;;;;;;10.52;9.43;;;;;;;;;;5004650;28;20412;-63
2022/05/06 01:47:31;;;;;;;9.43;8.50;;;;;;;;;;5063858;28;20094;-63
2022/05/06 01:50:03;;;;;;;11.73;10.50;;;;;;;;;;5079374;28;20042;-63
2022/05/06 01:52:39;;;;;;;10.13;9.15;;;;;;;;;;5063625;28;20053;-63
2022/05/06 01:55:09;;;;;;;9.75;8.75;;;;;;;;;;5080068;28;20049;-63
2022/05/06 01:57:52;;;;;;;9.98;8.75;;;;;;;;;;5010977;28;20578;-63
2022/05/06 02:00:21;;;;;;;10.48;9.43;;;;;;;;;;5079592;28;20098;-64
2022/05/06 02:02:51;;;;;;;10.40;9.32;;;;;;;;;;5011674;28;20046;-63
2022/05/06 02:05:27;;;;;;;9.95;8.95;;;;;;;;;;5079619;28;20140;-63
2022/05/06 02:07:55;;;;;;;11.50;10.27;;;;;;;;;;5079302;28;20381;-63
2022/05/06 02:10:27;;;;;;;12.55;11.23;;;;;;;;;;5079747;28;20141;-64
2022/05/06 02:13:01;;;;;;;11.52;10.43;;;;;;;;;;5079022;28;20049;-63
2022/05/06 02:15:50;;;;;;;11.13;9.98;;;;;;;;;;5079809;28;20061;-63
2022/05/06 02:18:39;;;;;;;13.27;11.98;;;;;;;;;;5010056;28;20058;-63
2022/05/06 02:21:25;;;;;;;11.38;10.27;;;;;;;;;;5011301;28;20057;-63
2022/05/06 02:24:12;;;;;;;14.57;9.68;;;;;;;;;;5078947;28;20053;-63
2022/05/06 02:27:13;;;;;;;12.98;11.00;;;;;;;;;;5016157;28;20499;-63
2022/05/06 02:35:28;;;;;;;13.93;11.63;;;;;;;;;;5078715;28;20405;-63
2022/05/06 02:37:58;;;;;;;13.23;10.57;;;;;;;;;;5079119;28;20046;-63
2022/05/06 02:40:31;;;;;;;13.27;11.98;;;;;;;;;;5078676;28;20493;-63
2022/05/06 02:43:00;;;;;;;12.30;11.07;;;;;;;;;;5078878;28;20072;-63
2022/05/06 02:45:28;;;;;;;11.68;10.43;;;;;;;;;;5078291;28;20092;-63
2022/05/06 02:47:58;;;;;;;12.00;10.80;;;;;;;;;;5078783;28;20084;-63
2022/05/06 02:50:31;;;;;;;12.55;11.30;;;;;;;;;;5079032;28;20069;-63
2022/05/06 02:53:01;;;;;;;12.73;10.45;;;;;;;;;;5078685;28;20050;-63
2022/05/06 02:55:29;;;;;;;13.15;11.07;;;;;;;;;;5079095;28;20140;-63
2022/05/06 02:58:00;;;;;;;16.27;10.07;;;;;;;;;;5078480;28;20060;-63
2022/05/06 03:00:31;;;;;;;12.60;9.65;;;;;;;;;;5078430;28;20046;-63
2022/05/06 03:03:02;;;;;;;11.30;10.20;;;;;;;;;;5009851;28;20078;-63
2022/05/06 03:05:33;;;;;;;12.20;10.57;;;;;;;;;;5086336;28;20052;-62
2022/05/06 03:08:03;;;;;;;11.65;10.55;;;;;;;;;;5072325;28;20053;-64
2022/05/06 03:10:32;;;;;;;11.07;9.93;;;;;;;;;;5078966;28;20046;-62
2022/05/06 03:13:03;;;;;;;11.50;10.30;;;;;;;;;;5078474;28;20049;-62
2022/05/06 03:15:34;;;;;;;11.60;10.40;;;;;;;;;;5078140;28;20050;-62
2022/05/06 03:18:09;;;;;;;10.68;9.57;;;;;;;;;;5078537;28;20053;-62
2022/05/06 03:20:38;;;;;;;12.20;9.88;;;;;;;;;;5078100;28;20070;-62
2022/05/06 03:23:06;;;;;;;11.50;10.38;;;;;;;;;;5010651;28;20081;-62
2022/05/06 03:25:36;;;;;;;9.98;8.98;;;;;;;;;;5010215;28;20493;-62
2022/05/06 03:28:09;;;;;;;12.23;9.23;;;;;;;;;;5009725;28;20045;-62
2022/05/06 03:30:39;;;;;;;9.73;7.20;;;;;;;;;;5078047;28;20061;-62
2022/05/06 03:33:30;;;;;;;8.23;6.53;;;;;;;;;;5010960;28;20053;-62
2022/05/06 03:36:05;;;;;;;6.43;5.82;;;;;;;;;;5009207;28;20093;-62
2022/05/06 03:38:39;;;;;;;;;;;;;;;;;;5078537;28;20058;-62
2022/05/06 03:41:08;;;;;;;6.20;5.60;;;;;;;;;;5077580;28;20020;-63
2022/05/06 03:43:37;;;;;;;6.47;5.22;;;;;;;;;;5010502;28;20101;-62
2022/05/06 03:46:16;;;;;;;5.15;4.65;;;;;;;;;;5077831;28;20069;-62
2022/05/06 03:48:44;;;;;;;5.18;4.68;;;;;;;;;;5077527;28;20505;-62
2022/05/06 03:51:22;;;;;;;6.50;5.90;;;;;;;;;;5078249;28;20397;-62
2022/05/06 03:54:10;;;;;;;6.20;4.80;;;;;;;;;;5011852;28;20050;-62
2022/05/06 03:56:38;;;;;;;5.20;4.65;;;;;;;;;;5078036;28;20057;-62
2022/05/06 03:59:09;;;;;;;5.22;4.60;;;;;;;;;;5009069;28;20057;-62
2022/05/06 04:01:41;;;;;;;4.78;4.28;;;;;;;;;;5078012;28;20038;-62
2022/05/06 04:04:15;;;;;;;5.22;4.72;;;;;;;;;;5008659;28;20052;-63
2022/05/06 04:06:42;;;;;;;5.20;4.70;;;;;;;;;;5077789;28;20054;-62
2022/05/06 04:09:12;;;;;;;5.40;4.90;;;;;;;;;;5077377;28;20046;-62
2022/05/06 04:11:42;;;;;;;5.85;5.28;;;;;;;;;;5077654;28;20139;-62
2022/05/06 04:14:11;;;;;;;5.35;4.85;;;;;;;;;;5077559;28;20057;-63
2022/05/06 04:16:44;;;;;;;5.32;4.82;;;;;;;;;;5077403;28;20148;-63
2022/05/06 04:19:25;;;;;;;5.93;5.25;;;;;;;;;;5077670;28;20497;-62
2022/05/06 04:24:52;;;;;;;;;;;;;;;;;;5010312;28;20077;-63
2022/05/06 04:27:23;;;;;;;6.47;5.13;;;;;;;;;;5076885;28;20301;-62
2022/05/06 04:29:56;;;;;;;5.50;5.00;;;;;;;;;;5078028;28;20057;-62
2022/05/06 04:32:32;;;;;;;6.28;5.03;;;;;;;;;;5072737;28;20497;-62
2022/05/06 04:35:04;;;;;;;5.97;5.38;;;;;;;;;;5077161;28;20053;-63
2022/05/06 04:37:33;;;;;;;6.32;5.75;;;;;;;;;;5074079;28;20053;-62
2022/05/06 04:40:04;;;;;;;5.82;5.28;;;;;;;;;;5066489;28;20505;-62
2022/05/06 04:42:33;;;;;;;6.47;5.13;;;;;;;;;;5072257;28;20144;-62
2022/05/06 04:45:04;;;;;;;4.97;4.47;;;;;;;;;;5081599;28;20075;-63
2022/05/06 04:47:37;;;;;;;8.15;5.22;;;;;;;;;;5081859;28;20489;-63
2022/05/06 04:50:09;;;;;;;5.53;5.03;;;;;;;;;;5081367;28;20045;-62
2022/05/06 04:52:41;;;;;;;5.32;4.40;;;;;;;;;;5081630;28;20076;-63
2022/05/06 04:55:15;;;;;;;6.28;4.80;;;;;;;;;;5065479;28;20075;-63
2022/05/06 04:57:49;;;;;;;5.68;4.57;;;;;;;;;;5081564;28;20046;-63
2022/05/06 05:00:21;;;;;;;5.85;4.13;;;;;;;;;;5081145;28;20046;-63
2022/05/06 05:02:50;;;;;;;4.40;4.00;;;;;;;;;;5012240;28;20046;-63
2022/05/06 05:05:19;;;;;;;4.82;4.25;;;;;;;;;;5013070;28;20050;-62
2022/05/06 05:07:48;;;;;;;5.57;5.00;;;;;;;;;;5081304;28;20443;-62
2022/05/06 05:10:18;;;;;;;7.75;4.75;;;;;;;;;;5080867;28;20060;-62
2022/05/06 05:12:47;;;;;;;4.93;4.40;;;;;;;;;;5081345;28;20060;-62
2022/05/06 05:15:18;;;;;;;4.88;4.38;;;;;;;;;;5081023;28;20046;-63
2022/05/06 05:17:46;;;;;;;4.65;4.25;;;;;;;;;;5080871;28;20102;-62
2022/05/06 05:20:16;;;;;;;6.90;4.72;;;;;;;;;;5081195;28;20050;-62
2022/05/06 05:22:46;;;;;;;4.70;4.22;;;;;;;;;;5080566;28;20073;-62
2022/05/06 05:25:15;;;;;;;6.13;4.65;;;;;;;;;;5080469;28;20583;-61
2022/05/06 05:27:45;;;;;;;4.63;4.20;;;;;;;;;;5080665;28;20050;-62
2022/05/06 05:30:26;;;;;;;4.72;4.32;;;;;;;;;;5080900;28;20053;-62
2022/05/06 05:33:04;;;;;;;4.80;4.40;;;;;;;;;;5080549;28;20046;-62
2022/05/06 05:35:33;;;;;;;5.88;5.38;;;;;;;;;;5080891;28;20079;-62
2022/05/06 05:38:04;;;;;;;5.95;4.43;;;;;;;;;;5080806;28;20041;-62
2022/05/06 05:40:35;;;;;;;4.65;4.25;;;;;;;;;;5012056;28;20034;-62
2022/05/06 05:48:19;;;;;;;5.10;4.70;;;;;;;;;;5080720;28;20082;-62
2022/05/06 05:48:45;;;;;;;5.10;4.50;;;;;;;;;;5080455;28;20054;-63
2022/05/06 05:51:13;;;;;;;5.65;5.15;;;;;;;;;;5012154;28;20050;-62
2022/05/06 05:53:49;;;;;;;5.32;4.82;;;;;;;;;;5097008;28;20122;-62
2022/05/06 05:56:19;;;;;;;5.78;5.28;;;;;;;;;;5079696;28;20137;-62
2022/05/06 05:58:49;;;;;;;5.05;4.15;;;;;;;;;;5078739;28;20046;-62
2022/05/06 06:01:21;;;;;;;6.00;5.47;;;;;;;;;;5012113;28;20048;-62
2022/05/06 06:03:52;;;;;;;7.05;5.50;;;;;;;;;;5080301;28;20045;-62
2022/05/06 06:06:21;;;;;;;6.45;5.65;;;;;;;;;;5080115;28;20056;-71
2022/05/06 06:08:52;;;;;;;6.60;5.88;;;;;;;;;;5080017;28;20404;-72
2022/05/06 06:11:19;;;;;;;8.95;5.40;;;;;;;;;;5080183;28;20046;-69
2022/05/06 06:13:50;;;;;;;8.43;7.50;;;;;;;;;;5079495;28;20057;-70
2022/05/06 06:16:24;;;;;;;6.55;5.95;;;;;;;;;;5078934;28;20053;-69
2022/05/06 06:18:53;;;;;;;6.65;6.05;;;;;;;;;;5079672;28;20045;-69
2022/05/06 06:21:23;;;;;;;6.43;5.80;;;;;;;;;;5079881;28;20042;-69
2022/05/06 06:23:52;;;;;;;6.72;6.13;;;;;;;;;;5079415;28;20531;-69
2022/05/06 06:26:21;;;;;;;6.20;5.68;;;;;;;;;;5077883;28;20061;-69
2022/05/06 06:28:50;;;;;;;5.82;5.32;;;;;;;;;;5077357;28;20061;-69
2022/05/06 06:31:18;;;;;;;5.35;4.85;;;;;;;;;;5010076;28;20050;-69
2022/05/06 06:33:49;;;;;;;6.60;5.80;;;;;;;;;;5077639;28;20052;-69
2022/05/06 06:36:26;;;;;;;7.47;5.90;;;;;;;;;;5077138;28;20046;-69
2022/05/06 06:38:54;;;;;;;6.82;6.22;;;;;;;;;;5077453;28;20214;-69
2022/05/06 06:41:23;;;;;;;8.45;6.00;;;;;;;;;;5078777;28;20038;-69
2022/05/06 06:43:51;;;;;;;9.20;5.85;;;;;;;;;;5012004;28;20056;-69
2022/05/06 06:46:38;;;;;;;6.07;5.53;;;;;;;;;;5011222;28;20053;-69
2022/05/06 06:49:22;;;;;;;6.20;5.67;;;;;;;;;;5011884;28;20046;-68
2022/05/06 06:52:00;;;;;;;6.63;6.03;;;;;;;;;;5079323;28;20400;-68
2022/05/06 06:54:34;;;;;;;6.35;5.68;;;;;;;;;;5011643;28;20118;-68
2022/05/06 06:57:02;;;;;;;5.88;5.38;;;;;;;;;;5011578;28;20042;-69
2022/05/06 06:59:32;;;;;;;7.13;6.22;;;;;;;;;;5011884;28;20106;-69
2022/05/06 07:02:00;;;;;;;6.32;5.72;;;;;;;;;;5011401;28;20074;-69
2022/05/06 07:04:29;;;;;;;9.23;5.50;;;;;;;;;;5010679;28;20046;-69
2022/05/06 07:12:31;;;;;;;9.65;5.03;;;;;;;;;;5011379;28;20046;-69
2022/05/06 07:15:02;;;;;;;5.68;5.18;;;;;;;;;;5011617;28;20161;-69
2022/05/06 07:17:31;;;;;;;6.57;5.80;;;;;;;;;;5011489;28;20498;-69
2022/05/06 07:19:59;;;;;;;5.18;4.70;;;;;;;;;;5010712;28;20054;-69
2022/05/06 07:22:29;;;;;;;6.10;5.05;;;;;;;;;;5011493;28;20144;-69
2022/05/06 07:24:58;;;;;;;5.72;5.22;;;;;;;;;;5011064;28;20087;-69
2022/05/06 07:27:27;;;;;;;6.03;5.45;;;;;;;;;;5010962;28;20053;-69
2022/05/06 07:29:57;;;;;;;8.63;4.90;;;;;;;;;;5011176;28;20107;-69
2022/05/06 07:32:27;;;;;;;5.93;4.93;;;;;;;;;;5011472;28;20085;-69
2022/05/06 07:34:55;;;;;;;5.30;4.80;;;;;;;;;;5010999;28;20045;-69
2022/05/06 07:37:24;;;;;;;6.55;5.90;;;;;;;;;;5010475;28;20100;-68
2022/05/06 07:39:52;;;;;;;5.15;4.68;;;;;;;;;;5010764;28;20050;-68
2022/05/06 07:42:22;;;;;;;6.30;5.53;;;;;;;;;;5010473;28;20420;-68
2022/05/06 07:44:50;;;;;;;6.32;5.40;;;;;;;;;;5010829;28;20053;-67
2022/05/06 07:47:19;;;;;;;8.15;5.78;;;;;;;;;;5010776;28;20053;-68
2022/05/06 07:50:09;;;;;;;10.30;6.78;;;;;;;;;;5010907;28;20072;-68
2022/05/06 07:52:37;;;;;;;6.18;5.55;;;;;;;;;;5010784;28;20418;-68
2022/05/06 07:55:13;;;;;;;7.40;6.03;;;;;;;;;;5010829;28;20449;-68
2022/05/06 07:57:42;;;;;;;9.88;5.45;;;;;;;;;;5010766;28;20124;-68
2022/05/06 08:00:14;;;;;;;7.03;5.82;;;;;;;;;;5010658;28;20065;-68
2022/05/06 08:05:32;;;;;;;5.65;5.13;;;;;;;;;;5010541;28;20050;-68
2022/05/06 08:07:59;;;;;;;5.35;4.85;;;;;;;;;;5010963;28;20065;-68
2022/05/06 08:10:27;;;;;;;5.50;5.00;;;;;;;;;;5010481;28;20141;-68
2022/05/06 08:12:56;;;;;;;5.40;4.90;;;;;;;;;;5010831;28;20061;-68
2022/05/06 08:15:25;;;;;;;6.22;5.13;;;;;;;;;;5010112;28;20058;-68
2022/05/06 08:17:54;;;;;;;6.57;5.82;;;;;;;;;;5013949;28;20050;-68
2022/05/06 08:20:21;;;;;;;9.38;5.60;;;;;;;;;;5013847;28;20052;-68
2022/05/06 08:22:50;;;;;;;7.05;5.10;;;;;;;;;;5013738;28;20053;-68
2022/05/06 08:25:17;;;;;;;7.53;5.20;;;;;;;;;;5013782;28;20127;-68
2022/05/06 08:27:57;;;;;;;9.82;5.78;;;;;;;;;;5013536;28;20401;-68
2022/05/06 08:30:26;;;;;;;6.40;5.13;;;;;;;;;;5013680;28;20042;-68
2022/05/06 08:32:54;;;;;;;6.00;5.38;;;;;;;;;;5013697;28;20486;-68
2022/05/06 08:35:24;;;;;;;8.45;5.35;;;;;;;;;;5013754;28;20076;-68
2022/05/06 08:37:53;;;;;;;5.85;5.22;;;;;;;;;;5013231;28;20050;-68
2022/05/06 08:40:26;;;;;;;6.35;5.40;;;;;;;;;;5013429;28;20050;-68
2022/05/06 08:42:53;;;;;;;8.00;5.35;;;;;;;;;;5013470;28;20058;-68
2022/05/06 08:51:06;;;;;;;7.85;6.53;;;;;;;;;;5013707;28;20054;-68
2022/05/06 08:53:37;;;;;;;6.80;5.60;;;;;;;;;;5013353;28;20108;-67
2022/05/06 08:56:06;;;;;;;11.95;6.75;;;;;;;;;;5013643;28;20053;-67
2022/05/06 08:58:37;;;;;;;6.75;5.38;;;;;;;;;;5013027;28;20098;-67
2022/05/06 09:01:09;;;;;;;6.40;5.80;;;;;;;;;;5013319;28;20077;-67
2022/05/06 09:03:47;;;;;;;6.82;5.78;;;;;;;;;;5013566;28;20141;-67
2022/05/06 09:06:26;;;;;;;9.30;6.40;;;;;;;;;;5012748;28;20516;-67
2022/05/06 09:08:57;;;;;;;12.25;6.18;;;;;;;;;;5013447;28;20114;-67
2022/05/06 09:16:39;;;;;;;7.00;6.25;;;;;;;;;;5013251;28;20054;-68
2022/05/06 09:17:24;;;;;;;6.90;5.60;;;;;;;;;;5012602;28;20068;-68
2022/05/06 09:19:52;;;;;;;10.68;6.82;;;;;;;;;;5012752;28;20057;-67
2022/05/06 09:22:20;;;;;;;9.88;5.50;;;;;;;;;;5012442;28;20046;-67
2022/05/06 09:24:47;;;;;;;14.57;5.45;;;;;;;;;;5013127;28;20050;-68
2022/05/06 09:27:17;;;;;;;8.40;6.25;;;;;;;;;;5012593;28;20053;-68
2022/05/06 09:29:49;;;;;;;8.70;5.82;;;;;;;;;;5012784;28;20046;-67
2022/05/06 09:32:18;;;;;;;8.77;5.68;;;;;;;;;;5012468;28;20099;-68
2022/05/06 09:35:15;;;;;;;10.10;5.30;;;;;;;;;;5012895;28;20045;-68
2022/05/06 09:37:46;;;;;;;7.78;5.93;;;;;;;;;;5012487;28;20077;-68
2022/05/06 09:40:16;;;;;;;6.10;5.50;;;;;;;;;;5012437;28;20046;-67
2022/05/06 09:42:57;;;;;;;7.15;5.68;;;;;;;;;;5012670;28;20046;-68
2022/05/06 09:45:37;;;;;;;11.27;6.10;;;;;;;;;;5012253;28;20068;-68
2022/05/06 09:48:09;;;;;;;5.97;5.47;;;;;;;;;;5012348;28;20149;-68
2022/05/06 09:50:39;;;;;;;7.95;5.20;;;;;;;;;;5012221;28;20074;-68
2022/05/06 09:53:09;;;;;;;7.40;5.25;;;;;;;;;;5012527;28;20057;-68
2022/05/06 09:55:39;;;;;;;8.77;4.90;;;;;;;;;;5011471;28;20079;-68
2022/05/06 09:58:08;;;;;;;10.27;5.57;;;;;;;;;;5010897;28;20049;-68
2022/05/06 10:00:38;;;;;;;6.78;5.63;;;;;;;;;;5012168;28;20080;-68
2022/05/06 10:03:07;;;;;;;10.05;5.15;;;;;;;;;;5011975;28;20454;-67
2022/05/06 10:05:37;;;;;;;17.10;6.53;;;;;;;;;;5012168;28;20418;-68
2022/05/06 10:08:05;;;;;;;7.28;5.38;;;;;;;;;;5012004;28;20056;-68
2022/05/06 10:10:40;;;;;;;9.13;5.97;;;;;;;;;;5012364;28;20076;-70
2022/05/06 10:13:16;;;;;;;7.72;5.65;;;;;;;;;;5078658;28;20556;-68
2022/05/06 10:15:49;;;;;;;7.85;6.10;;;;;;;;;;5078003;28;20133;-67
2022/05/06 10:18:42;;;;;;;5.63;5.13;;;;;;;;;;5011508;28;20046;-68
2022/05/06 10:21:12;;;;;;;12.00;5.75;;;;;;;;;;5080222;28;20050;-67
2022/05/06 10:23:54;;;;;;;8.63;6.38;;;;;;;;;;5011361;28;20050;-68
2022/05/06 10:26:34;;;;;;;9.43;5.72;;;;;;;;;;5011892;28;20098;-67
2022/05/06 10:35:02;;;;;;;8.13;6.30;;;;;;;;;;5011472;28;20042;-67
2022/05/06 10:37:39;;;;;;;7.30;6.60;;;;;;;;;;5011709;28;20075;-67
2022/05/06 10:40:47;;;;;;;9.07;6.57;;;;;;;;;;5010491;28;20141;-67
2022/05/06 10:43:46;;;;;;;7.18;6.05;;;;;;;;;;5015946;28;20131;-67
2022/05/06 10:46:49;;;;;;;6.32;5.45;;;;;;;;;;5023215;28;20054;-68
2022/05/06 10:49:38;;;;;;;6.40;5.57;;;;;;;;;;5032634;28;20050;-67
2022/05/06 10:52:28;;;;;;;8.32;6.57;;;;;;;;;;5011869;28;20107;-67
2022/05/06 10:55:00;;;;;;;10.35;6.65;;;;;;;;;;5014413;28;20501;-67
2022/05/06 10:57:31;;;;;;;7.78;6.32;;;;;;;;;;5011494;28;20404;-67
2022/05/06 11:00:09;;;;;;;8.93;7.30;;;;;;;;;;5011515;28;20046;-67
2022/05/06 11:02:39;;;;;;;8.00;6.22;;;;;;;;;;5011250;28;20084;-67
2022/05/06 11:05:09;;;;;;;8.88;6.80;;;;;;;;;;5011615;28;20076;-67
2022/05/06 11:07:39;;;;;;;10.75;6.28;;;;;;;;;;5011068;28;20153;-67
2022/05/06 11:10:19;;;;;;;11.82;7.45;;;;;;;;;;5011257;28;20045;-67
2022/05/06 11:12:51;;;;;;;9.10;7.05;;;;;;;;;;5019713;28;20047;-67
2022/05/06 11:15:22;;;;;;;9.55;7.95;;;;;;;;;;5011330;28;20081;-67
2022/05/06 11:17:51;;;;;;;8.82;7.57;;;;;;;;;;5010874;28;20057;-68
2022/05/06 11:20:29;;;;;;;10.43;6.60;;;;;;;;;;5012053;28;20083;-67
2022/05/06 11:22:57;;;;;;;9.35;7.50;;;;;;;;;;5010584;28;20041;-69
2022/05/06 11:25:29;;;;;;;11.82;6.30;;;;;;;;;;5010005;28;20044;-66
2022/05/06 11:28:01;;;;;;;7.22;6.35;;;;;;;;;;5010489;28;20488;-67
2022/05/06 11:30:32;;;;;;;7.60;6.00;;;;;;;;;;5010497;28;20453;-67
2022/05/06 11:33:03;;;;;;;13.13;7.97;;;;;;;;;;5010001;28;20046;-66
2022/05/06 11:36:15;;;;;;;11.18;6.85;;;;;;;;;;5010069;28;20099;-66
2022/05/06 11:38:46;;;;;;;11.10;7.22;;;;;;;;;;5009762;28;20548;-66
2022/05/06 11:41:16;;;;;;;9.25;6.80;;;;;;;;;;5009300;28;20099;-67
2022/05/06 11:43:47;;;;;;;8.07;5.85;;;;;;;;;;5010644;28;20455;-67
2022/05/06 11:49:06;;;;;;;7.47;6.53;;;;;;;;;;5010374;28;20042;-67
2022/05/06 11:51:43;;;;;;;11.48;6.68;;;;;;;;;;5016459;28;20508;-67
2022/05/06 11:54:15;;;;;;;7.57;6.80;;;;;;;;;;5083187;28;20124;-66
2022/05/06 11:56:43;;;;;;;7.57;5.97;;;;;;;;;;5016523;28;20133;-66
2022/05/06 11:59:11;;;;;;;8.38;6.10;;;;;;;;;;5083042;28;20137;-67
2022/05/06 12:01:40;;;;;;;8.38;5.82;;;;;;;;;;5017039;28;20042;-67
2022/05/06 12:04:10;;;;;;;7.90;6.40;;;;;;;;;;5015806;28;20041;-67
2022/05/06 12:06:44;;;;;;;10.98;5.85;;;;;;;;;;5016549;28;20042;-69
2022/05/06 12:09:22;;;;;;;7.28;6.35;;;;;;;;;;5015922;28;20046;-67
2022/05/06 12:12:10;;;;;;;10.45;6.88;;;;;;;;;;5015880;28;20065;-68
2022/05/06 12:14:39;;;;;;;8.80;7.03;;;;;;;;;;5016345;28;20142;-68
2022/05/06 12:17:14;;;;;;;8.30;5.68;;;;;;;;;;5016256;28;20462;-69
2022/05/06 12:19:47;;;;;;;8.23;5.72;;;;;;;;;;5016534;28;20054;-68
2022/05/06 12:22:26;;;;;;;7.72;5.93;;;;;;;;;;5015842;28;20412;-68
2022/05/06 12:24:58;;;;;;;7.88;6.18;;;;;;;;;;5016205;28;20057;-69
2022/05/06 12:27:30;;;;;;;9.55;6.70;;;;;;;;;;5015789;28;20041;-68
2022/05/06 12:29:59;;;;;;;8.25;6.68;;;;;;;;;;5016082;28;20596;-67
2022/05/06 12:32:28;;;;;;;7.93;6.90;;;;;;;;;;5015522;28;20121;-67
2022/05/06 12:35:06;;;;;;;10.15;7.72;;;;;;;;;;5016143;28;20049;-68
2022/05/06 12:37:37;;;;;;;12.48;7.15;;;;;;;;;;5015687;28;20070;-68
2022/05/06 12:40:06;;;;;;;8.60;7.80;;;;;;;;;;5083042;28;20054;-68
2022/05/06 12:42:34;;;;;;;11.35;7.82;;;;;;;;;;5015787;28;20052;-68
2022/05/06 12:45:22;;;;;;;10.02;7.00;;;;;;;;;;5016307;28;20057;-67
2022/05/06 12:50:38;;;;;;;12.90;7.35;;;;;;;;;;5015739;28;20050;-68
2022/05/06 12:53:06;;;;;;;8.10;6.43;;;;;;;;;;5016186;28;20046;-67
2022/05/06 12:55:35;;;;;;;8.63;7.53;;;;;;;;;;5083862;28;20545;-67
2022/05/06 12:58:03;;;;;;;9.30;7.45;;;;;;;;;;5016036;28;20094;-70
2022/05/06 13:00:32;;;;;;;11.32;7.32;;;;;;;;;;5083767;28;20087;-68
2022/05/06 13:03:02;;;;;;;10.18;7.55;;;;;;;;;;5012456;28;20042;-68
2022/05/06 13:05:29;;;;;;;10.90;7.35;;;;;;;;;;5009791;28;20050;-68
2022/05/06 13:08:04;;;;;;;11.57;7.35;;;;;;;;;;5012799;28;20045;-68
2022/05/06 13:10:37;;;;;;;9.57;7.90;;;;;;;;;;5012176;28;20077;-68
2022/05/06 13:13:09;;;;;;;12.38;6.95;;;;;;;;;;5013009;28;20301;-69
2022/05/06 13:15:37;;;;;;;12.65;6.95;;;;;;;;;;5012727;28;20381;-67
2022/05/06 13:18:06;;;;;;;9.63;7.45;;;;;;;;;;5078468;28;20053;-67
2022/05/06 13:20:34;;;;;;;8.00;7.20;;;;;;;;;;5012366;28;20101;-67
2022/05/06 13:23:02;;;;;;;7.95;6.93;;;;;;;;;;5012265;28;20442;-68
2022/05/06 13:25:31;;;;;;;9.30;7.47;;;;;;;;;;5012571;28;20048;-68
2022/05/06 13:28:00;;;;;;;10.70;8.10;;;;;;;;;;5011521;28;20045;-68
2022/05/06 13:30:29;;;;;;;8.48;7.57;;;;;;;;;;5012370;28;20053;-67
2022/05/06 13:32:57;;;;;;;10.93;7.20;;;;;;;;;;5011857;28;20050;-67
2022/05/06 13:35:30;;;;;;;9.82;7.50;;;;;;;;;;5011983;28;20050;-68
2022/05/06 13:37:58;;;;;;;12.70;6.15;;;;;;;;;;5012582;28;20050;-68
2022/05/06 13:40:26;;;;;;;10.35;6.90;;;;;;;;;;5011785;28;20530;-68
2022/05/06 13:42:55;;;;;;;9.57;7.25;;;;;;;;;;5012134;28;20049;-67
2022/05/06 13:45:23;;;;;;;10.77;8.43;;;;;;;;;;5011805;28;20057;-67
2022/05/06 13:47:51;;;;;;;10.02;6.10;;;;;;;;;;5009922;28;20046;-67
2022/05/06 13:50:21;;;;;;;11.93;7.88;;;;;;;;;;5077505;28;20211;-68
2022/05/06 13:52:51;;;;;;;9.27;6.32;;;;;;;;;;5012408;28;20090;-68
2022/05/06 13:55:20;;;;;;;10.02;6.30;;;;;;;;;;5011797;28;20042;-68
2022/05/06 14:00:37;;;;;;;8.27;7.30;;;;;;;;;;5011680;28;20147;-67
2022/05/06 14:03:05;;;;;;;9.93;7.30;;;;;;;;;;5011744;28;20041;-68
2022/05/06 14:05:32;;;;;;;8.88;7.57;;;;;;;;;;5011929;28;20493;-69
2022/05/06 14:08:00;;;;;;;11.00;8.32;;;;;;;;;;5078208;28;20523;-69
2022/05/06 14:10:29;;;;;;;7.15;6.45;;;;;;;;;;5011852;28;20050;-67
2022/05/06 14:12:58;;;;;;;9.18;7.10;;;;;;;;;;5009570;28;20050;-67
2022/05/06 14:15:26;;;;;;;10.30;7.40;;;;;;;;;;5011728;28;20133;-68
2022/05/06 14:17:55;;;;;;;10.50;7.80;;;;;;;;;;5011227;28;20111;-67
2022/05/06 14:20:23;;;;;;;9.32;7.10;;;;;;;;;;5011751;28;20544;-68
2022/05/06 14:22:55;;;;;;;13.32;8.45;;;;;;;;;;5078350;28;20057;-67
2022/05/06 14:25:22;;;;;;;9.30;8.23;;;;;;;;;;5012057;28;20054;-67
2022/05/06 14:27:51;;;;;;;9.35;7.75;;;;;;;;;;5012020;28;20050;-68
2022/05/06 14:30:19;;;;;;;17.85;7.57;;;;;;;;;;5011635;28;20175;-67
2022/05/06 14:32:49;;;;;;;8.45;7.28;;;;;;;;;;5011348;28;20124;-69
2022/05/06 14:35:16;;;;;;;10.18;7.45;;;;;;;;;;5010421;28;20050;-67
2022/05/06 14:37:49;;;;;;;13.05;8.82;;;;;;;;;;5011234;28;20054;-67
2022/05/06 14:40:21;;;;;;;11.93;8.20;;;;;;;;;;5010168;28;20098;-66
2022/05/06 14:42:49;;;;;;;11.20;7.50;;;;;;;;;;5010783;28;20053;-69
2022/05/06 14:45:17;;;;;;;9.32;8.00;;;;;;;;;;5010553;28;20045;-67
2022/05/06 14:47:46;;;;;;;10.75;8.68;;;;;;;;;;5011060;28;20468;-68
2022/05/06 14:50:15;;;;;;;15.70;8.13;;;;;;;;;;5011305;28;20050;-65
2022/05/06 14:52:44;;;;;;;10.98;7.72;;;;;;;;;;5010338;28;20058;-67
2022/05/06 14:55:12;;;;;;;13.25;9.75;;;;;;;;;;5011194;28;20106;-68
2022/05/06 14:57:43;;;;;;;9.15;7.40;;;;;;;;;;5011109;28;20089;-68
2022/05/06 15:00:15;;;;;;;9.70;7.63;;;;;;;;;;5011734;28;20068;-68
2022/05/06 15:02:43;;;;;;;9.70;7.68;;;;;;;;;;5010836;28;20462;-68
2022/05/06 15:05:11;;;;;;;9.38;7.15;;;;;;;;;;5011512;28;20469;-68
2022/05/06 15:07:39;;;;;;;9.15;8.23;;;;;;;;;;5010921;28;20053;-68
2022/05/06 15:10:09;;;;;;;12.23;8.23;;;;;;;;;;5011046;28;20046;-68
2022/05/06 15:12:38;;;;;;;7.55;6.85;;;;;;;;;;5010834;28;20129;-68
2022/05/06 15:15:08;;;;;;;8.85;7.30;;;;;;;;;;5007355;28;20607;-68
2022/05/06 15:17:38;;;;;;;10.68;6.88;;;;;;;;;;5010765;28;20048;-68
2022/05/06 15:20:14;;;;;;;7.90;7.10;;;;;;;;;;5010063;28;20046;-68
2022/05/06 15:22:41;;;;;;;7.63;6.80;;;;;;;;;;5010749;28;20128;-67
2022/05/06 15:25:13;;;;;;;7.03;6.30;;;;;;;;;;5009467;28;20034;-68
2022/05/06 15:27:41;;;;;;;10.43;7.30;;;;;;;;;;5010539;28;20057;-67
2022/05/06 15:30:10;;;;;;;6.70;6.13;;;;;;;;;;5010264;28;20054;-68
2022/05/06 15:32:39;;;;;;;7.47;6.72;;;;;;;;;;5009826;28;20539;-68
2022/05/06 15:35:09;;;;;;;6.82;6.03;;;;;;;;;;5008078;28;20508;-69
2022/05/06 15:37:38;;;;;;;9.80;8.05;;;;;;;;;;5009714;28;20038;-69
2022/05/06 15:40:08;;;;;;;9.82;7.38;;;;;;;;;;5010321;28;20541;-69
2022/05/06 15:42:38;;;;;;;8.82;6.03;;;;;;;;;;5009930;28;20073;-69
2022/05/06 15:45:07;;;;;;;10.18;6.18;;;;;;;;;;5009704;28;20141;-69
2022/05/06 15:47:36;;;;;;;8.35;6.88;;;;;;;;;;5009659;28;20049;-69
2022/05/06 15:50:09;;;;;;;8.43;6.50;;;;;;;;;;5077869;28;20042;-67